Republic, Kansas
Current Conditions -  °F | °C
As of 5:35 AM on Friday 24 Oct 2014 (Local Time) from KHJH Reporting Station
Haze Haze  
Wind Chill: 57°   Ceiling: Unl
Heat Index: 57°   Visibility: 4mi
Dew Point: 55°   Wind: 6mph
Humidity: 92%   Direction: 210°SSW
Pressure: 29.98"   Gusts: NA
Location:  39.92°N, 97.82°W
Report Text: KHJH 241035Z AUTO 21005KT 4SM BR CLR 14/13 A2998 RMK AO2 T01410129
Loading
Personal Weather Stations






























Interactive Weather Map
Tropical Storm Tracking
New forecast layout! Learn more

10-Day Weather Forecast

Advertisements
Track Severe Weather on mobile